sensor_id;sensor_type;location;lat;lon;timestamp;P1;durP1;ratioP1;P2;durP2;ratioP2
77280;SDS011;66339;47.262;17.144;2023-04-15T00:02:04;4.50;;;2.70;;
77280;SDS011;66339;47.262;17.144;2023-04-15T00:04:51;4.50;;;2.58;;
77280;SDS011;66339;47.262;17.144;2023-04-15T00:07:18;4.70;;;2.83;;
77280;SDS011;66339;47.262;17.144;2023-04-15T00:09:48;5.10;;;2.90;;
77280;SDS011;66339;47.262;17.144;2023-04-15T00:12:17;5.20;;;2.65;;
77280;SDS011;66339;47.262;17.144;2023-04-15T00:14:44;4.47;;;2.70;;
77280;SDS011;66339;47.262;17.144;2023-04-15T00:17:17;6.12;;;3.10;;
77280;SDS011;66339;47.262;17.144;2023-04-15T00:19:44;6.05;;;3.05;;
77280;SDS011;66339;47.262;17.144;2023-04-15T00:22:14;4.87;;;2.85;;
77280;SDS011;66339;47.262;17.144;2023-04-15T00:24:41;4.72;;;2.62;;
77280;SDS011;66339;47.262;17.144;2023-04-15T00:27:11;5.07;;;2.53;;
77280;SDS011;66339;47.262;17.144;2023-04-15T00:29:41;4.10;;;2.70;;
77280;SDS011;66339;47.262;17.144;2023-04-15T00:32:14;3.67;;;2.30;;
77280;SDS011;66339;47.262;17.144;2023-04-15T00:34:44;4.95;;;2.95;;
77280;SDS011;66339;47.262;17.144;2023-04-15T00:37:11;6.18;;;2.72;;
77280;SDS011;66339;47.262;17.144;2023-04-15T00:39:38;4.12;;;2.30;;
77280;SDS011;66339;47.262;17.144;2023-04-15T00:42:11;4.85;;;2.60;;
77280;SDS011;66339;47.262;17.144;2023-04-15T00:44:43;4.65;;;2.60;;
77280;SDS011;66339;47.262;17.144;2023-04-15T00:47:13;5.72;;;2.83;;
77280;SDS011;66339;47.262;17.144;2023-04-15T00:49:43;5.57;;;2.55;;
77280;SDS011;66339;47.262;17.144;2023-04-15T00:52:14;5.12;;;2.60;;
77280;SDS011;66339;47.262;17.144;2023-04-15T00:54:48;4.87;;;2.53;;
77280;SDS011;66339;47.262;17.144;2023-04-15T00:57:19;4.43;;;2.60;;
77280;SDS011;66339;47.262;17.144;2023-04-15T00:59:48;4.62;;;2.85;;
77280;SDS011;66339;47.262;17.144;2023-04-15T01:02:22;5.05;;;2.50;;
77280;SDS011;66339;47.262;17.144;2023-04-15T01:04:52;4.07;;;2.40;;
77280;SDS011;66339;47.262;17.144;2023-04-15T01:07:20;4.25;;;2.42;;
77280;SDS011;66339;47.262;17.144;2023-04-15T01:09:54;5.55;;;2.12;;
77280;SDS011;66339;47.262;17.144;2023-04-15T01:12:22;3.75;;;2.40;;
77280;SDS011;66339;47.262;17.144;2023-04-15T01:14:55;4.97;;;2.58;;
77280;SDS011;66339;47.262;17.144;2023-04-15T01:17:23;5.37;;;2.10;;
77280;SDS011;66339;47.262;17.144;2023-04-15T01:19:51;5.43;;;2.30;;
77280;SDS011;66339;47.262;17.144;2023-04-15T01:22:26;3.22;;;2.17;;
77280;SDS011;66339;47.262;17.144;2023-04-15T01:25:00;4.00;;;2.25;;
77280;SDS011;66339;47.262;17.144;2023-04-15T01:27:43;4.07;;;2.25;;
77280;SDS011;66339;47.262;17.144;2023-04-15T01:30:11;4.40;;;2.22;;
77280;SDS011;66339;47.262;17.144;2023-04-15T01:32:38;4.78;;;2.10;;
77280;SDS011;66339;47.262;17.144;2023-04-15T01:35:09;3.90;;;2.30;;
77280;SDS011;66339;47.262;17.144;2023-04-15T01:37:40;3.33;;;1.80;;
77280;SDS011;66339;47.262;17.144;2023-04-15T01:40:11;2.90;;;2.10;;
77280;SDS011;66339;47.262;17.144;2023-04-15T01:42:39;3.50;;;2.37;;
77280;SDS011;66339;47.262;17.144;2023-04-15T01:45:10;3.65;;;2.35;;
77280;SDS011;66339;47.262;17.144;2023-04-15T01:47:42;4.05;;;1.87;;
77280;SDS011;66339;47.262;17.144;2023-04-15T01:50:09;3.67;;;2.22;;
77280;SDS011;66339;47.262;17.144;2023-04-15T01:52:37;4.05;;;2.35;;
77280;SDS011;66339;47.262;17.144;2023-04-15T01:55:09;4.57;;;2.12;;
77280;SDS011;66339;47.262;17.144;2023-04-15T01:57:37;3.28;;;2.08;;
77280;SDS011;66339;47.262;17.144;2023-04-15T02:00:11;2.83;;;1.90;;
77280;SDS011;66339;47.262;17.144;2023-04-15T02:02:44;3.60;;;1.85;;
77280;SDS011;66339;47.262;17.144;2023-04-15T02:05:12;3.80;;;2.25;;
77280;SDS011;66339;47.262;17.144;2023-04-15T02:07:42;3.40;;;2.15;;
77280;SDS011;66339;47.262;17.144;2023-04-15T02:10:10;2.87;;;2.00;;
77280;SDS011;66339;47.262;17.144;2023-04-15T02:12:38;3.45;;;1.98;;
77280;SDS011;66339;47.262;17.144;2023-04-15T02:15:08;3.45;;;2.15;;
77280;SDS011;66339;47.262;17.144;2023-04-15T02:17:42;3.35;;;2.25;;
77280;SDS011;66339;47.262;17.144;2023-04-15T02:20:18;3.97;;;2.03;;
77280;SDS011;66339;47.262;17.144;2023-04-15T02:22:49;2.85;;;1.90;;
77280;SDS011;66339;47.262;17.144;2023-04-15T02:25:25;4.68;;;2.22;;
77280;SDS011;66339;47.262;17.144;2023-04-15T02:27:56;2.65;;;1.90;;
77280;SDS011;66339;47.262;17.144;2023-04-15T02:30:27;3.22;;;1.90;;
77280;SDS011;66339;47.262;17.144;2023-04-15T02:32:54;3.45;;;2.08;;
77280;SDS011;66339;47.262;17.144;2023-04-15T02:35:28;3.72;;;1.92;;
77280;SDS011;66339;47.262;17.144;2023-04-15T02:37:55;2.78;;;1.90;;
77280;SDS011;66339;47.262;17.144;2023-04-15T02:40:23;3.47;;;1.90;;
77280;SDS011;66339;47.262;17.144;2023-04-15T02:42:56;2.70;;;1.90;;
77280;SDS011;66339;47.262;17.144;2023-04-15T02:45:23;4.60;;;2.85;;
77280;SDS011;66339;47.262;17.144;2023-04-15T02:47:51;3.08;;;1.80;;
77280;SDS011;66339;47.262;17.144;2023-04-15T02:50:18;2.75;;;1.98;;
77280;SDS011;66339;47.262;17.144;2023-04-15T02:52:46;3.85;;;1.95;;
77280;SDS011;66339;47.262;17.144;2023-04-15T02:55:17;2.97;;;1.90;;
77280;SDS011;66339;47.262;17.144;2023-04-15T02:57:48;2.62;;;1.87;;
77280;SDS011;66339;47.262;17.144;2023-04-15T03:00:18;3.05;;;1.95;;
77280;SDS011;66339;47.262;17.144;2023-04-15T03:02:46;2.15;;;1.60;;
77280;SDS011;66339;47.262;17.144;2023-04-15T03:05:14;3.08;;;1.77;;
77280;SDS011;66339;47.262;17.144;2023-04-15T03:07:44;4.03;;;1.85;;
77280;SDS011;66339;47.262;17.144;2023-04-15T03:10:17;4.25;;;1.90;;
77280;SDS011;66339;47.262;17.144;2023-04-15T03:12:45;2.83;;;2.08;;
77280;SDS011;66339;47.262;17.144;2023-04-15T03:15:18;2.72;;;1.70;;
77280;SDS011;66339;47.262;17.144;2023-04-15T03:17:51;3.22;;;2.00;;
77280;SDS011;66339;47.262;17.144;2023-04-15T03:20:20;1.90;;;1.48;;
77280;SDS011;66339;47.262;17.144;2023-04-15T03:22:50;2.40;;;1.55;;
77280;SDS011;66339;47.262;17.144;2023-04-15T03:25:18;2.67;;;1.62;;
77280;SDS011;66339;47.262;17.144;2023-04-15T03:27:52;3.22;;;1.75;;
77280;SDS011;66339;47.262;17.144;2023-04-15T03:30:20;3.17;;;1.80;;
77280;SDS011;66339;47.262;17.144;2023-04-15T03:32:51;3.75;;;1.87;;
77280;SDS011;66339;47.262;17.144;2023-04-15T03:35:18;2.62;;;1.75;;
77280;SDS011;66339;47.262;17.144;2023-04-15T03:37:51;2.75;;;1.48;;
77280;SDS011;66339;47.262;17.144;2023-04-15T03:40:19;2.67;;;1.70;;
77280;SDS011;66339;47.262;17.144;2023-04-15T03:42:51;3.87;;;1.60;;
77280;SDS011;66339;47.262;17.144;2023-04-15T03:45:22;2.80;;;1.73;;
77280;SDS011;66339;47.262;17.144;2023-04-15T03:47:52;3.75;;;1.87;;
77280;SDS011;66339;47.262;17.144;2023-04-15T03:50:32;3.53;;;1.70;;
77280;SDS011;66339;47.262;17.144;2023-04-15T03:53:00;3.15;;;1.80;;
77280;SDS011;66339;47.262;17.144;2023-04-15T03:55:28;2.50;;;1.60;;
77280;SDS011;66339;47.262;17.144;2023-04-15T03:57:59;2.60;;;1.70;;
77280;SDS011;66339;47.262;17.144;2023-04-15T04:02:59;2.47;;;1.58;;
77280;SDS011;66339;47.262;17.144;2023-04-15T04:05:27;2.72;;;1.62;;
77280;SDS011;66339;47.262;17.144;2023-04-15T04:07:55;2.33;;;1.60;;
77280;SDS011;66339;47.262;17.144;2023-04-15T04:10:26;2.03;;;1.60;;
77280;SDS011;66339;47.262;17.144;2023-04-15T04:12:56;3.75;;;1.62;;
77280;SDS011;66339;47.262;17.144;2023-04-15T04:15:28;2.62;;;1.80;;
77280;SDS011;66339;47.262;17.144;2023-04-15T04:17:58;3.10;;;1.35;;
77280;SDS011;66339;47.262;17.144;2023-04-15T04:20:32;3.03;;;1.42;;
77280;SDS011;66339;47.262;17.144;2023-04-15T04:23:06;2.12;;;1.52;;
77280;SDS011;66339;47.262;17.144;2023-04-15T04:25:33;2.10;;;1.45;;
77280;SDS011;66339;47.262;17.144;2023-04-15T04:28:02;2.80;;;1.65;;
77280;SDS011;66339;47.262;17.144;2023-04-15T04:30:34;2.28;;;1.60;;
77280;SDS011;66339;47.262;17.144;2023-04-15T04:33:02;2.10;;;1.58;;
77280;SDS011;66339;47.262;17.144;2023-04-15T04:35:35;2.28;;;1.65;;
77280;SDS011;66339;47.262;17.144;2023-04-15T04:38:06;2.33;;;1.50;;
77280;SDS011;66339;47.262;17.144;2023-04-15T04:40:33;2.65;;;1.65;;
77280;SDS011;66339;47.262;17.144;2023-04-15T04:43:06;2.97;;;1.52;;
77280;SDS011;66339;47.262;17.144;2023-04-15T04:45:34;2.35;;;1.55;;
77280;SDS011;66339;47.262;17.144;2023-04-15T04:48:01;2.62;;;1.65;;
77280;SDS011;66339;47.262;17.144;2023-04-15T04:50:29;2.05;;;1.50;;
77280;SDS011;66339;47.262;17.144;2023-04-15T04:53:02;3.10;;;1.77;;
77280;SDS011;66339;47.262;17.144;2023-04-15T04:55:33;2.15;;;1.62;;
77280;SDS011;66339;47.262;17.144;2023-04-15T04:58:04;2.53;;;1.67;;
77280;SDS011;66339;47.262;17.144;2023-04-15T05:00:31;2.47;;;1.67;;
77280;SDS011;66339;47.262;17.144;2023-04-15T05:03:02;3.75;;;1.67;;
77280;SDS011;66339;47.262;17.144;2023-04-15T05:05:30;2.92;;;1.60;;
77280;SDS011;66339;47.262;17.144;2023-04-15T05:07:58;2.47;;;1.55;;
77280;SDS011;66339;47.262;17.144;2023-04-15T05:10:29;4.45;;;1.83;;
77280;SDS011;66339;47.262;17.144;2023-04-15T05:13:03;3.37;;;1.60;;
77280;SDS011;66339;47.262;17.144;2023-04-15T05:15:34;2.37;;;1.40;;
77280;SDS011;66339;47.262;17.144;2023-04-15T05:18:02;2.40;;;1.50;;
77280;SDS011;66339;47.262;17.144;2023-04-15T05:20:33;2.00;;;1.33;;
77280;SDS011;66339;47.262;17.144;2023-04-15T05:23:06;2.28;;;1.67;;
77280;SDS011;66339;47.262;17.144;2023-04-15T05:25:37;1.83;;;1.33;;
77280;SDS011;66339;47.262;17.144;2023-04-15T05:28:07;2.47;;;1.40;;
77280;SDS011;66339;47.262;17.144;2023-04-15T05:30:38;2.30;;;1.35;;
77280;SDS011;66339;47.262;17.144;2023-04-15T05:33:11;2.45;;;1.58;;
77280;SDS011;66339;47.262;17.144;2023-04-15T05:35:42;2.75;;;1.67;;
77280;SDS011;66339;47.262;17.144;2023-04-15T05:38:13;2.35;;;1.52;;
77280;SDS011;66339;47.262;17.144;2023-04-15T05:40:46;2.22;;;1.62;;
77280;SDS011;66339;47.262;17.144;2023-04-15T05:43:16;2.40;;;1.55;;
77280;SDS011;66339;47.262;17.144;2023-04-15T05:45:47;1.87;;;1.48;;
77280;SDS011;66339;47.262;17.144;2023-04-15T05:48:20;2.25;;;1.60;;
77280;SDS011;66339;47.262;17.144;2023-04-15T05:50:54;2.42;;;1.42;;
77280;SDS011;66339;47.262;17.144;2023-04-15T05:53:23;3.72;;;1.60;;
77280;SDS011;66339;47.262;17.144;2023-04-15T05:55:56;4.20;;;1.70;;
77280;SDS011;66339;47.262;17.144;2023-04-15T05:58:24;3.12;;;1.80;;
77280;SDS011;66339;47.262;17.144;2023-04-15T06:00:57;4.85;;;1.98;;
77280;SDS011;66339;47.262;17.144;2023-04-15T06:03:30;5.57;;;1.92;;
77280;SDS011;66339;47.262;17.144;2023-04-15T06:05:58;8.20;;;1.77;;
77280;SDS011;66339;47.262;17.144;2023-04-15T06:08:31;4.47;;;2.00;;
77280;SDS011;66339;47.262;17.144;2023-04-15T06:11:02;4.97;;;1.65;;
77280;SDS011;66339;47.262;17.144;2023-04-15T06:13:33;7.62;;;2.00;;
77280;SDS011;66339;47.262;17.144;2023-04-15T06:16:00;5.47;;;1.90;;
77280;SDS011;66339;47.262;17.144;2023-04-15T06:18:32;5.72;;;1.80;;
77280;SDS011;66339;47.262;17.144;2023-04-15T06:20:59;3.47;;;1.98;;
77280;SDS011;66339;47.262;17.144;2023-04-15T06:23:27;3.80;;;2.00;;
77280;SDS011;66339;47.262;17.144;2023-04-15T06:25:57;5.12;;;1.77;;
77280;SDS011;66339;47.262;17.144;2023-04-15T06:28:28;9.10;;;2.12;;
77280;SDS011;66339;47.262;17.144;2023-04-15T06:30:55;11.43;;;2.08;;
77280;SDS011;66339;47.262;17.144;2023-04-15T06:33:29;8.68;;;2.20;;
77280;SDS011;66339;47.262;17.144;2023-04-15T06:35:58;9.70;;;1.77;;
77280;SDS011;66339;47.262;17.144;2023-04-15T06:38:32;4.65;;;1.95;;
77280;SDS011;66339;47.262;17.144;2023-04-15T06:41:03;3.17;;;1.67;;
77280;SDS011;66339;47.262;17.144;2023-04-15T06:43:33;6.68;;;1.92;;
77280;SDS011;66339;47.262;17.144;2023-04-15T06:46:05;5.85;;;1.90;;
77280;SDS011;66339;47.262;17.144;2023-04-15T06:48:32;7.18;;;1.75;;
77280;SDS011;66339;47.262;17.144;2023-04-15T06:51:02;6.72;;;1.90;;
77280;SDS011;66339;47.262;17.144;2023-04-15T06:53:29;3.55;;;1.60;;
77280;SDS011;66339;47.262;17.144;2023-04-15T06:55:56;10.15;;;3.25;;
77280;SDS011;66339;47.262;17.144;2023-04-15T06:58:26;4.45;;;1.87;;
77280;SDS011;66339;47.262;17.144;2023-04-15T07:00:53;6.35;;;2.00;;
77280;SDS011;66339;47.262;17.144;2023-04-15T07:03:25;24.75;;;6.82;;
77280;SDS011;66339;47.262;17.144;2023-04-15T07:05:52;39.88;;;10.73;;
77280;SDS011;66339;47.262;17.144;2023-04-15T07:08:28;47.97;;;11.38;;
77280;SDS011;66339;47.262;17.144;2023-04-15T07:10:55;41.58;;;10.93;;
77280;SDS011;66339;47.262;17.144;2023-04-15T07:13:25;39.17;;;10.27;;
77280;SDS011;66339;47.262;17.144;2023-04-15T07:15:52;41.45;;;10.68;;
77280;SDS011;66339;47.262;17.144;2023-04-15T07:18:19;43.33;;;11.40;;
77280;SDS011;66339;47.262;17.144;2023-04-15T07:20:46;38.33;;;12.57;;
77280;SDS011;66339;47.262;17.144;2023-04-15T07:23:21;50.15;;;13.15;;
77280;SDS011;66339;47.262;17.144;2023-04-15T07:28:21;36.88;;;10.90;;
77280;SDS011;66339;47.262;17.144;2023-04-15T07:30:51;40.58;;;13.25;;
77280;SDS011;66339;47.262;17.144;2023-04-15T07:33:23;38.90;;;12.40;;
77280;SDS011;66339;47.262;17.144;2023-04-15T07:35:50;40.15;;;11.70;;
77280;SDS011;66339;47.262;17.144;2023-04-15T07:38:20;36.50;;;11.60;;
77280;SDS011;66339;47.262;17.144;2023-04-15T07:40:51;32.45;;;11.75;;
77280;SDS011;66339;47.262;17.144;2023-04-15T07:43:24;32.40;;;11.85;;
77280;SDS011;66339;47.262;17.144;2023-04-15T07:45:55;40.33;;;11.88;;
77280;SDS011;66339;47.262;17.144;2023-04-15T07:48:25;36.40;;;11.12;;
77280;SDS011;66339;47.262;17.144;2023-04-15T07:50:52;29.92;;;10.10;;
77280;SDS011;66339;47.262;17.144;2023-04-15T07:53:26;34.33;;;11.82;;
77280;SDS011;66339;47.262;17.144;2023-04-15T07:55:57;38.28;;;11.45;;
77280;SDS011;66339;47.262;17.144;2023-04-15T07:58:24;33.05;;;10.52;;
77280;SDS011;66339;47.262;17.144;2023-04-15T08:00:54;26.45;;;10.55;;
77280;SDS011;66339;47.262;17.144;2023-04-15T08:03:22;29.23;;;9.88;;
77280;SDS011;66339;47.262;17.144;2023-04-15T08:05:54;27.48;;;10.10;;
77280;SDS011;66339;47.262;17.144;2023-04-15T08:08:24;25.30;;;9.50;;
77280;SDS011;66339;47.262;17.144;2023-04-15T08:11:00;26.48;;;8.85;;
77280;SDS011;66339;47.262;17.144;2023-04-15T08:13:30;23.40;;;8.88;;
77280;SDS011;66339;47.262;17.144;2023-04-15T08:18:50;21.50;;;6.65;;
77280;SDS011;66339;47.262;17.144;2023-04-15T08:21:21;19.65;;;6.45;;
77280;SDS011;66339;47.262;17.144;2023-04-15T08:23:54;18.00;;;6.93;;
77280;SDS011;66339;47.262;17.144;2023-04-15T08:26:23;22.60;;;6.75;;
77280;SDS011;66339;47.262;17.144;2023-04-15T08:28:50;20.50;;;6.75;;
77280;SDS011;66339;47.262;17.144;2023-04-15T08:31:17;17.20;;;7.03;;
77280;SDS011;66339;47.262;17.144;2023-04-15T08:33:48;16.05;;;6.37;;
77280;SDS011;66339;47.262;17.144;2023-04-15T08:36:24;17.08;;;6.72;;
77280;SDS011;66339;47.262;17.144;2023-04-15T08:38:56;18.75;;;6.20;;
77280;SDS011;66339;47.262;17.144;2023-04-15T08:41:26;17.33;;;6.45;;
77280;SDS011;66339;47.262;17.144;2023-04-15T08:44:06;20.10;;;6.37;;
77280;SDS011;66339;47.262;17.144;2023-04-15T08:49:08;17.10;;;6.15;;
77280;SDS011;66339;47.262;17.144;2023-04-15T08:51:46;16.33;;;5.40;;
77280;SDS011;66339;47.262;17.144;2023-04-15T08:54:20;12.80;;;5.45;;
77280;SDS011;66339;47.262;17.144;2023-04-15T08:56:53;13.43;;;4.93;;
77280;SDS011;66339;47.262;17.144;2023-04-15T08:59:26;13.87;;;5.27;;
77280;SDS011;66339;47.262;17.144;2023-04-15T09:02:03;13.15;;;4.97;;
77280;SDS011;66339;47.262;17.144;2023-04-15T09:04:37;14.10;;;4.93;;
77280;SDS011;66339;47.262;17.144;2023-04-15T09:07:07;12.82;;;5.25;;
77280;SDS011;66339;47.262;17.144;2023-04-15T09:09:41;15.23;;;5.47;;
77280;SDS011;66339;47.262;17.144;2023-04-15T09:12:18;11.52;;;5.00;;
77280;SDS011;66339;47.262;17.144;2023-04-15T09:14:47;12.95;;;5.22;;
77280;SDS011;66339;47.262;17.144;2023-04-15T09:17:24;14.20;;;4.95;;
77280;SDS011;66339;47.262;17.144;2023-04-15T09:20:08;15.07;;;5.15;;
77280;SDS011;66339;47.262;17.144;2023-04-15T09:22:40;12.45;;;5.28;;
77280;SDS011;66339;47.262;17.144;2023-04-15T09:27:58;12.27;;;4.40;;
77280;SDS011;66339;47.262;17.144;2023-04-15T09:30:29;13.00;;;4.30;;
77280;SDS011;66339;47.262;17.144;2023-04-15T09:33:02;11.70;;;4.35;;
77280;SDS011;66339;47.262;17.144;2023-04-15T09:35:34;11.55;;;4.28;;
77280;SDS011;66339;47.262;17.144;2023-04-15T09:38:05;10.38;;;4.30;;
77280;SDS011;66339;47.262;17.144;2023-04-15T09:40:38;13.13;;;4.28;;
77280;SDS011;66339;47.262;17.144;2023-04-15T09:43:12;10.63;;;4.22;;
77280;SDS011;66339;47.262;17.144;2023-04-15T09:45:51;10.75;;;3.50;;
77280;SDS011;66339;47.262;17.144;2023-04-15T09:48:28;10.77;;;3.83;;
77280;SDS011;66339;47.262;17.144;2023-04-15T09:51:01;9.18;;;3.25;;
77280;SDS011;66339;47.262;17.144;2023-04-15T09:53:38;16.15;;;4.40;;
77280;SDS011;66339;47.262;17.144;2023-04-15T09:56:13;9.40;;;3.75;;
77280;SDS011;66339;47.262;17.144;2023-04-15T09:58:47;10.57;;;3.53;;
77280;SDS011;66339;47.262;17.144;2023-04-15T10:01:27;11.73;;;3.22;;
77280;SDS011;66339;47.262;17.144;2023-04-15T10:04:10;8.25;;;3.62;;
77280;SDS011;66339;47.262;17.144;2023-04-15T10:06:46;16.40;;;4.57;;
77280;SDS011;66339;47.262;17.144;2023-04-15T10:09:20;9.05;;;3.58;;
77280;SDS011;66339;47.262;17.144;2023-04-15T10:11:59;8.57;;;3.08;;
77280;SDS011;66339;47.262;17.144;2023-04-15T10:17:03;6.87;;;3.20;;
77280;SDS011;66339;47.262;17.144;2023-04-15T10:19:43;9.57;;;3.10;;
77280;SDS011;66339;47.262;17.144;2023-04-15T10:22:22;18.65;;;3.22;;
77280;SDS011;66339;47.262;17.144;2023-04-15T10:25:01;14.82;;;3.80;;
77280;SDS011;66339;47.262;17.144;2023-04-15T10:27:33;7.20;;;2.80;;
77280;SDS011;66339;47.262;17.144;2023-04-15T10:30:07;10.15;;;3.20;;
77280;SDS011;66339;47.262;17.144;2023-04-15T10:32:48;11.27;;;3.62;;
77280;SDS011;66339;47.262;17.144;2023-04-15T10:35:19;10.30;;;3.20;;
77280;SDS011;66339;47.262;17.144;2023-04-15T10:41:24;9.15;;;3.12;;
77280;SDS011;66339;47.262;17.144;2023-04-15T10:43:59;6.62;;;3.00;;
77280;SDS011;66339;47.262;17.144;2023-04-15T10:46:41;11.20;;;3.15;;
77280;SDS011;66339;47.262;17.144;2023-04-15T10:49:15;10.98;;;2.92;;
77280;SDS011;66339;47.262;17.144;2023-04-15T10:52:01;11.07;;;2.92;;
77280;SDS011;66339;47.262;17.144;2023-04-15T10:54:39;10.95;;;3.00;;
77280;SDS011;66339;47.262;17.144;2023-04-15T10:57:14;8.40;;;2.90;;
77280;SDS011;66339;47.262;17.144;2023-04-15T11:02:47;7.18;;;2.70;;
77280;SDS011;66339;47.262;17.144;2023-04-15T11:05:24;8.15;;;2.85;;
77280;SDS011;66339;47.262;17.144;2023-04-15T11:08:15;6.03;;;3.00;;
77280;SDS011;66339;47.262;17.144;2023-04-15T11:13:16;6.10;;;2.75;;
77280;SDS011;66339;47.262;17.144;2023-04-15T11:15:49;8.30;;;2.78;;
77280;SDS011;66339;47.262;17.144;2023-04-15T11:18:27;5.85;;;2.60;;
77280;SDS011;66339;47.262;17.144;2023-04-15T11:21:00;9.50;;;2.53;;
77280;SDS011;66339;47.262;17.144;2023-04-15T11:23:39;8.20;;;2.83;;
77280;SDS011;66339;47.262;17.144;2023-04-15T11:26:09;7.60;;;2.78;;
77280;SDS011;66339;47.262;17.144;2023-04-15T11:28:47;6.47;;;2.40;;
77280;SDS011;66339;47.262;17.144;2023-04-15T11:31:18;6.07;;;2.50;;
77280;SDS011;66339;47.262;17.144;2023-04-15T11:33:59;10.35;;;2.65;;
77280;SDS011;66339;47.262;17.144;2023-04-15T11:36:27;9.02;;;2.67;;
77280;SDS011;66339;47.262;17.144;2023-04-15T11:39:03;9.15;;;2.28;;
77280;SDS011;66339;47.262;17.144;2023-04-15T11:41:40;10.23;;;2.47;;
77280;SDS011;66339;47.262;17.144;2023-04-15T11:44:22;13.32;;;2.87;;
77280;SDS011;66339;47.262;17.144;2023-04-15T11:46:53;12.23;;;3.47;;
77280;SDS011;66339;47.262;17.144;2023-04-15T11:49:27;8.13;;;2.40;;
77280;SDS011;66339;47.262;17.144;2023-04-15T11:51:58;10.18;;;2.42;;
77280;SDS011;66339;47.262;17.144;2023-04-15T11:54:43;8.05;;;2.75;;
77280;SDS011;66339;47.262;17.144;2023-04-15T11:57:14;10.95;;;3.15;;
77280;SDS011;66339;47.262;17.144;2023-04-15T12:02:26;8.25;;;2.42;;
77280;SDS011;66339;47.262;17.144;2023-04-15T12:05:07;10.65;;;2.92;;
77280;SDS011;66339;47.262;17.144;2023-04-15T12:08:04;12.23;;;2.60;;
77280;SDS011;66339;47.262;17.144;2023-04-15T12:10:34;12.05;;;2.70;;
77280;SDS011;66339;47.262;17.144;2023-04-15T12:13:08;12.63;;;2.75;;
77280;SDS011;66339;47.262;17.144;2023-04-15T12:15:41;8.93;;;2.50;;
77280;SDS011;66339;47.262;17.144;2023-04-15T12:18:17;9.02;;;2.37;;
77280;SDS011;66339;47.262;17.144;2023-04-15T12:20:47;6.22;;;2.33;;
77280;SDS011;66339;47.262;17.144;2023-04-15T12:23:21;6.57;;;1.83;;
77280;SDS011;66339;47.262;17.144;2023-04-15T12:26:24;5.62;;;1.70;;
77280;SDS011;66339;47.262;17.144;2023-04-15T12:38:28;6.93;;;1.75;;
77280;SDS011;66339;47.262;17.144;2023-04-15T12:41:01;3.42;;;1.50;;
77280;SDS011;66339;47.262;17.144;2023-04-15T12:43:34;5.68;;;1.52;;
77280;SDS011;66339;47.262;17.144;2023-04-15T12:46:04;4.22;;;1.35;;
77280;SDS011;66339;47.262;17.144;2023-04-15T12:48:42;4.47;;;1.55;;
77280;SDS011;66339;47.262;17.144;2023-04-15T12:51:15;9.27;;;1.73;;
77280;SDS011;66339;47.262;17.144;2023-04-15T12:53:46;4.87;;;1.42;;
77280;SDS011;66339;47.262;17.144;2023-04-15T12:56:20;5.62;;;1.73;;
77280;SDS011;66339;47.262;17.144;2023-04-15T12:58:51;6.72;;;2.00;;
77280;SDS011;66339;47.262;17.144;2023-04-15T13:01:19;6.57;;;1.85;;
77280;SDS011;66339;47.262;17.144;2023-04-15T13:03:53;4.80;;;1.73;;
77280;SDS011;66339;47.262;17.144;2023-04-15T13:06:22;3.92;;;1.60;;
77280;SDS011;66339;47.262;17.144;2023-04-15T13:08:55;6.80;;;2.28;;
77280;SDS011;66339;47.262;17.144;2023-04-15T13:11:26;7.45;;;1.87;;
77280;SDS011;66339;47.262;17.144;2023-04-15T13:14:04;9.75;;;1.80;;
77280;SDS011;66339;47.262;17.144;2023-04-15T13:16:35;6.87;;;2.28;;
77280;SDS011;66339;47.262;17.144;2023-04-15T13:19:16;10.90;;;1.90;;
77280;SDS011;66339;47.262;17.144;2023-04-15T13:21:44;4.32;;;1.50;;
77280;SDS011;66339;47.262;17.144;2023-04-15T13:24:14;6.72;;;1.90;;
77280;SDS011;66339;47.262;17.144;2023-04-15T13:26:49;5.57;;;1.92;;
77280;SDS011;66339;47.262;17.144;2023-04-15T13:29:21;4.47;;;1.60;;
77280;SDS011;66339;47.262;17.144;2023-04-15T13:31:52;5.05;;;1.98;;
77280;SDS011;66339;47.262;17.144;2023-04-15T13:34:22;9.10;;;1.90;;
77280;SDS011;66339;47.262;17.144;2023-04-15T13:36:55;5.07;;;1.58;;
77280;SDS011;66339;47.262;17.144;2023-04-15T13:39:34;4.85;;;1.70;;
77280;SDS011;66339;47.262;17.144;2023-04-15T13:42:04;5.70;;;1.87;;
77280;SDS011;66339;47.262;17.144;2023-04-15T13:44:37;4.30;;;1.70;;
77280;SDS011;66339;47.262;17.144;2023-04-15T13:47:10;9.45;;;2.15;;
77280;SDS011;66339;47.262;17.144;2023-04-15T13:49:37;7.28;;;1.87;;
77280;SDS011;66339;47.262;17.144;2023-04-15T13:52:07;8.27;;;1.85;;
77280;SDS011;66339;47.262;17.144;2023-04-15T13:54:35;10.25;;;1.58;;
77280;SDS011;66339;47.262;17.144;2023-04-15T13:57:04;7.80;;;1.80;;
77280;SDS011;66339;47.262;17.144;2023-04-15T13:59:37;5.32;;;1.80;;
77280;SDS011;66339;47.262;17.144;2023-04-15T14:02:05;4.37;;;1.70;;
77280;SDS011;66339;47.262;17.144;2023-04-15T14:04:37;4.55;;;1.87;;
77280;SDS011;66339;47.262;17.144;2023-04-15T14:07:07;6.65;;;1.60;;
77280;SDS011;66339;47.262;17.144;2023-04-15T14:09:38;5.57;;;1.70;;
77280;SDS011;66339;47.262;17.144;2023-04-15T14:12:09;7.65;;;1.65;;
77280;SDS011;66339;47.262;17.144;2023-04-15T14:14:37;6.62;;;1.30;;
77280;SDS011;66339;47.262;17.144;2023-04-15T14:17:11;6.90;;;1.73;;
77280;SDS011;66339;47.262;17.144;2023-04-15T14:19:41;6.68;;;2.10;;
77280;SDS011;66339;47.262;17.144;2023-04-15T14:22:08;5.18;;;1.70;;
77280;SDS011;66339;47.262;17.144;2023-04-15T14:24:38;4.40;;;1.73;;
77280;SDS011;66339;47.262;17.144;2023-04-15T14:27:09;7.37;;;1.60;;
77280;SDS011;66339;47.262;17.144;2023-04-15T14:29:41;10.63;;;2.45;;
77280;SDS011;66339;47.262;17.144;2023-04-15T14:32:13;4.60;;;1.65;;
77280;SDS011;66339;47.262;17.144;2023-04-15T14:34:47;4.20;;;1.50;;
77280;SDS011;66339;47.262;17.144;2023-04-15T14:37:22;4.75;;;1.90;;
77280;SDS011;66339;47.262;17.144;2023-04-15T14:39:49;3.15;;;1.45;;
77280;SDS011;66339;47.262;17.144;2023-04-15T14:42:17;6.43;;;1.80;;
77280;SDS011;66339;47.262;17.144;2023-04-15T14:44:45;6.47;;;1.67;;
77280;SDS011;66339;47.262;17.144;2023-04-15T14:47:18;4.20;;;1.75;;
77280;SDS011;66339;47.262;17.144;2023-04-15T14:49:55;4.62;;;1.65;;
77280;SDS011;66339;47.262;17.144;2023-04-15T14:52:22;4.12;;;1.40;;
77280;SDS011;66339;47.262;17.144;2023-04-15T14:54:52;6.35;;;1.45;;
77280;SDS011;66339;47.262;17.144;2023-04-15T14:57:22;4.68;;;1.52;;
77280;SDS011;66339;47.262;17.144;2023-04-15T14:59:58;2.28;;;1.37;;
77280;SDS011;66339;47.262;17.144;2023-04-15T15:02:29;4.53;;;1.52;;
77280;SDS011;66339;47.262;17.144;2023-04-15T15:05:09;4.10;;;1.60;;
77280;SDS011;66339;47.262;17.144;2023-04-15T15:07:39;6.47;;;1.75;;
77280;SDS011;66339;47.262;17.144;2023-04-15T15:10:06;6.60;;;1.50;;
77280;SDS011;66339;47.262;17.144;2023-04-15T15:12:36;7.03;;;1.90;;
77280;SDS011;66339;47.262;17.144;2023-04-15T15:15:06;4.10;;;1.35;;
77280;SDS011;66339;47.262;17.144;2023-04-15T15:17:54;6.07;;;1.58;;
77280;SDS011;66339;47.262;17.144;2023-04-15T15:20:24;4.07;;;1.40;;
77280;SDS011;66339;47.262;17.144;2023-04-15T15:22:52;3.53;;;1.48;;
77280;SDS011;66339;47.262;17.144;2023-04-15T15:25:19;3.58;;;1.37;;
77280;SDS011;66339;47.262;17.144;2023-04-15T15:27:48;2.30;;;1.55;;
77280;SDS011;66339;47.262;17.144;2023-04-15T15:30:17;3.58;;;1.60;;
77280;SDS011;66339;47.262;17.144;2023-04-15T15:32:47;2.08;;;1.50;;
77280;SDS011;66339;47.262;17.144;2023-04-15T15:35:17;3.25;;;1.35;;